Time;durP1;ratioP1;P1;durP2;ratioP2;P2;SDS_P1;SDS_P2;PMS_P1;PMS_P2;Temp;Humidity;BMP_temperature;BMP_pressure;BME280_temperature;BME280_humidity;BME280_pressure;Samples;Min_cycle;Max_cycle;Signal;HPM_P1;HPM_P2
2021/01/26 00:00:39;;;;;;;18.50;5.90;;;0.60;99.90;;;;;;5020917;28;20382;-58
2021/01/26 00:03:07;;;;;;;14.13;5.65;;;0.60;99.90;;;;;;4990020;28;20042;-58
2021/01/26 00:05:33;;;;;;;14.70;5.45;;;0.50;99.90;;;;;;5012816;28;20132;-58
2021/01/26 00:08:00;;;;;;;14.65;4.70;;;0.50;99.90;;;;;;5012921;28;20044;-59
2021/01/26 00:10:27;;;;;;;16.60;4.68;;;0.50;99.90;;;;;;5004911;28;20044;-58
2021/01/26 00:12:54;;;;;;;13.95;4.63;;;0.50;99.90;;;;;;5009364;28;20049;-58
2021/01/26 00:15:20;;;;;;;11.68;4.05;;;0.50;99.90;;;;;;5010465;28;20053;-59
2021/01/26 00:17:48;;;;;;;11.38;3.92;;;0.50;99.90;;;;;;5011845;28;20057;-58
2021/01/26 00:20:15;;;;;;;12.70;3.83;;;0.50;99.90;;;;;;5008769;28;20124;-58
2021/01/26 00:22:42;;;;;;;11.65;3.78;;;0.50;99.90;;;;;;4992290;28;20060;-59
2021/01/26 00:25:12;;;;;;;8.57;4.03;;;0.60;99.90;;;;;;5008328;28;20046;-59
2021/01/26 00:27:39;;;;;;;11.35;3.78;;;0.60;99.90;;;;;;5015753;28;20612;-58
2021/01/26 00:30:11;;;;;;;10.85;3.53;;;0.60;99.90;;;;;;5001627;28;20034;-58
2021/01/26 00:32:38;;;;;;;15.02;3.47;;;0.60;99.90;;;;;;5005755;28;20057;-58
2021/01/26 00:35:05;;;;;;;14.18;4.03;;;0.60;99.90;;;;;;5013142;28;20106;-58
2021/01/26 00:37:33;;;;;;;12.25;3.15;;;0.70;99.90;;;;;;5021134;28;20048;-58
2021/01/26 00:39:59;;;;;;;11.75;3.45;;;0.70;99.90;;;;;;5007796;28;20049;-59
2021/01/26 00:42:25;;;;;;;10.20;3.42;;;0.70;99.90;;;;;;5009149;28;20046;-58
2021/01/26 00:44:52;;;;;;;12.48;3.78;;;0.70;99.90;;;;;;5013118;28;20042;-58
2021/01/26 00:47:18;;;;;;;7.25;2.55;;;0.80;99.90;;;;;;5010926;28;20049;-59
2021/01/26 00:49:45;;;;;;;9.30;3.33;;;0.80;99.90;;;;;;5007585;28;20048;-58
2021/01/26 00:52:13;;;;;;;12.90;4.05;;;0.80;99.90;;;;;;5008917;28;20311;-58
2021/01/26 00:54:40;;;;;;;10.88;4.10;;;0.80;99.90;;;;;;5006161;28;20453;-58
2021/01/26 00:57:07;;;;;;;15.52;4.55;;;0.70;99.90;;;;;;5009605;28;20124;-58
2021/01/26 00:59:33;;;;;;;15.30;4.32;;;0.70;99.90;;;;;;5008926;28;20065;-59
2021/01/26 01:02:00;;;;;;;12.60;4.57;;;0.80;99.90;;;;;;5008493;28;20141;-59
2021/01/26 01:04:27;;;;;;;13.48;4.68;;;0.80;99.90;;;;;;5010711;28;20446;-58
2021/01/26 01:06:53;;;;;;;12.05;4.05;;;0.80;99.90;;;;;;5011004;28;20386;-58
2021/01/26 01:09:20;;;;;;;10.77;3.30;;;0.80;99.90;;;;;;5012186;28;20393;-58
2021/01/26 01:11:46;;;;;;;10.52;3.67;;;0.80;99.90;;;;;;5009111;28;20516;-58
2021/01/26 01:14:13;;;;;;;10.98;3.78;;;0.80;99.90;;;;;;4999144;28;20057;-58
2021/01/26 01:16:39;;;;;;;8.23;2.80;;;0.80;99.90;;;;;;5008280;28;20049;-58
2021/01/26 01:19:07;;;;;;;10.38;3.65;;;0.80;99.90;;;;;;5003311;28;20069;-59
2021/01/26 01:21:33;;;;;;;9.00;3.92;;;0.80;99.90;;;;;;5008245;28;20520;-59
2021/01/26 01:24:00;;;;;;;10.95;3.38;;;0.80;99.90;;;;;;5009085;28;20041;-58
2021/01/26 01:26:26;;;;;;;13.02;3.20;;;0.80;99.90;;;;;;5010382;28;20490;-60
2021/01/26 01:28:53;;;;;;;13.10;4.18;;;0.70;99.90;;;;;;5004607;28;20045;-59
2021/01/26 01:31:19;;;;;;;9.85;3.60;;;0.70;99.90;;;;;;5008234;28;20386;-59
2021/01/26 01:33:45;;;;;;;9.30;3.25;;;0.70;99.90;;;;;;5010391;28;20042;-58
2021/01/26 01:36:12;;;;;;;8.10;2.83;;;0.70;99.90;;;;;;5010072;28;20409;-58
2021/01/26 01:38:38;;;;;;;9.40;2.70;;;0.70;99.90;;;;;;5007127;28;20037;-58
2021/01/26 01:41:05;;;;;;;11.20;3.10;;;0.70;99.90;;;;;;5003036;28;20049;-57
2021/01/26 01:43:31;;;;;;;8.00;3.45;;;0.70;99.90;;;;;;5006544;28;20508;-58
2021/01/26 01:45:58;;;;;;;12.95;3.63;;;0.70;99.90;;;;;;5009374;28;20049;-58
2021/01/26 01:48:30;;;;;;;10.68;3.70;;;0.60;99.90;;;;;;5006597;28;20065;-57
2021/01/26 01:51:21;;;;;;;13.53;3.53;;;0.70;99.90;;;;;;5005619;28;20159;-58
2021/01/26 01:53:54;;;;;;;10.82;3.42;;;0.70;99.90;;;;;;5012172;28;20279;-59
2021/01/26 01:56:31;;;;;;;15.00;4.50;;;0.70;99.90;;;;;;5011856;28;20049;-58
2021/01/26 01:59:02;;;;;;;12.57;3.38;;;0.70;99.90;;;;;;5015210;28;20061;-58
2021/01/26 02:01:30;;;;;;;11.52;3.35;;;0.70;99.90;;;;;;5003597;28;20497;-58
2021/01/26 02:04:09;;;;;;;7.63;2.58;;;0.80;99.90;;;;;;5013925;28;20405;-57
2021/01/26 02:06:38;;;;;;;9.82;2.85;;;0.80;99.90;;;;;;5015691;28;20109;-58
2021/01/26 02:09:27;;;;;;;8.65;2.83;;;0.80;99.90;;;;;;5007716;28;20042;-58
2021/01/26 02:11:54;;;;;;;6.85;2.20;;;0.90;99.90;;;;;;5008486;28;20044;-58
2021/01/26 02:14:21;;;;;;;7.53;2.38;;;0.90;99.90;;;;;;5015364;28;20042;-58
2021/01/26 02:17:21;;;;;;;8.20;2.67;;;1.00;99.90;;;;;;5013064;28;20535;-58
2021/01/26 02:20:09;;;;;;;6.45;2.20;;;1.00;99.90;;;;;;5003236;28;20100;-57
2021/01/26 02:23:11;;;;;;;6.50;2.15;;;1.10;99.90;;;;;;5011886;28;20050;-58
2021/01/26 02:26:15;;;;;;;7.88;2.83;;;1.20;99.90;;;;;;5004422;28;20409;-58
2021/01/26 02:28:52;;;;;;;8.77;2.72;;;1.30;99.90;;;;;;5008535;28;20083;-58
2021/01/26 02:31:44;;;;;;;7.97;2.35;;;1.30;99.90;;;;;;5010627;28;20113;-57
2021/01/26 02:34:34;;;;;;;7.38;2.40;;;1.40;99.90;;;;;;5005636;28;20065;-58
2021/01/26 02:37:12;;;;;;;7.38;1.85;;;1.40;99.90;;;;;;5014624;28;20080;-58
2021/01/26 02:39:54;;;;;;;10.00;3.25;;;1.50;99.90;;;;;;5012653;28;20445;-59
2021/01/26 02:42:33;;;;;;;6.20;2.42;;;1.50;99.90;;;;;;5012753;28;20049;-59
2021/01/26 02:45:21;;;;;;;9.18;3.13;;;1.60;99.90;;;;;;5009029;28;20045;-57
2021/01/26 02:48:02;;;;;;;8.20;2.60;;;1.60;99.90;;;;;;5011212;28;20046;-57
2021/01/26 02:50:41;;;;;;;9.02;2.75;;;1.60;99.90;;;;;;5010055;28;20042;-59
2021/01/26 02:53:25;;;;;;;7.57;3.30;;;1.70;99.90;;;;;;5013956;28;20050;-58
2021/01/26 02:55:57;;;;;;;7.57;2.55;;;1.70;99.90;;;;;;5000765;28;20463;-59
2021/01/26 02:58:49;;;;;;;9.90;3.25;;;1.80;99.90;;;;;;5011440;28;20053;-58
2021/01/26 03:01:17;;;;;;;11.27;3.53;;;1.80;99.90;;;;;;5027875;28;20523;-57
2021/01/26 03:03:49;;;;;;;15.73;4.05;;;1.80;99.90;;;;;;5015830;28;20171;-58
2021/01/26 03:06:25;;;;;;;8.80;3.20;;;1.80;99.90;;;;;;5024737;28;20061;-58
2021/01/26 03:09:08;;;;;;;10.45;3.50;;;1.70;99.90;;;;;;5027920;28;20053;-58
2021/01/26 03:11:39;;;;;;;11.00;3.15;;;1.70;99.90;;;;;;5018900;28;20126;-58
2021/01/26 03:14:38;;;;;;;11.18;2.83;;;1.70;99.90;;;;;;5026867;28;20088;-58
2021/01/26 03:17:37;;;;;;;7.13;2.75;;;1.70;99.90;;;;;;5012529;28;20049;-58
2021/01/26 03:20:16;;;;;;;9.35;2.53;;;1.60;99.90;;;;;;4997038;28;20046;-58
2021/01/26 03:22:50;;;;;;;6.95;1.90;;;1.60;99.90;;;;;;5029531;28;20042;-58
2021/01/26 03:25:20;;;;;;;7.72;2.47;;;1.50;99.90;;;;;;5013479;28;20045;-58
2021/01/26 03:27:48;;;;;;;8.65;2.95;;;1.40;99.90;;;;;;5016397;28;20085;-57
2021/01/26 03:30:20;;;;;;;7.68;2.97;;;1.40;99.90;;;;;;5025417;28;20046;-58
2021/01/26 03:32:50;;;;;;;10.88;3.17;;;1.30;99.90;;;;;;5012235;28;20054;-58
2021/01/26 03:35:17;;;;;;;9.32;2.50;;;1.20;99.90;;;;;;5006452;28;20121;-59
2021/01/26 03:37:51;;;;;;;9.20;2.60;;;1.20;99.90;;;;;;5013056;28;20065;-58
2021/01/26 03:40:18;;;;;;;;;;;1.10;99.90;;;;;;5008901;28;20065;-59
2021/01/26 03:42:44;;;;;;;7.75;2.38;;;1.10;99.90;;;;;;5022907;28;20009;-58
2021/01/26 03:45:11;;;;;;;6.15;2.33;;;1.10;99.90;;;;;;5004179;28;20497;-57
2021/01/26 03:47:53;;;;;;;6.85;2.63;;;1.10;99.90;;;;;;5007767;28;20042;-58
2021/01/26 03:50:33;;;;;;;9.60;2.40;;;1.00;99.90;;;;;;5004947;28;20572;-58
2021/01/26 03:53:30;;;;;;;9.35;2.65;;;1.00;99.90;;;;;;5009831;28;20045;-58
2021/01/26 03:55:59;;;;;;;9.23;2.60;;;0.90;99.90;;;;;;5002127;28;20053;-58
2021/01/26 03:58:49;;;;;;;7.78;2.47;;;0.90;99.90;;;;;;5008534;28;20123;-59
2021/01/26 04:01:34;;;;;;;8.18;2.17;;;0.80;99.90;;;;;;5008115;28;20065;-58
2021/01/26 04:04:10;;;;;;;10.40;2.75;;;0.70;99.90;;;;;;5004705;28;20046;-58
2021/01/26 04:06:45;;;;;;;10.32;2.80;;;0.70;99.90;;;;;;5000115;28;20069;-58
2021/01/26 04:09:16;;;;;;;8.43;2.47;;;0.70;99.90;;;;;;5006612;28;20466;-60
2021/01/26 04:12:04;;;;;;;9.48;2.63;;;0.70;99.90;;;;;;5009521;28;20050;-58
2021/01/26 04:14:47;;;;;;;7.72;2.72;;;0.70;99.90;;;;;;5026729;28;20038;-58
2021/01/26 04:17:26;;;;;;;10.07;2.78;;;0.70;99.90;;;;;;5008619;28;20048;-59
2021/01/26 04:20:28;;;;;;;8.77;2.58;;;0.70;99.90;;;;;;5000774;28;20060;-57
2021/01/26 04:22:59;;;;;;;7.65;2.55;;;0.70;99.90;;;;;;4998045;28;20046;-60
2021/01/26 04:25:37;;;;;;;11.80;2.65;;;0.70;99.90;;;;;;5012824;28;20476;-57
2021/01/26 04:28:07;;;;;;;11.15;2.63;;;0.70;99.90;;;;;;5008728;28;20057;-59
2021/01/26 04:30:34;;;;;;;16.05;3.17;;;0.80;99.90;;;;;;5010666;28;20034;-58
2021/01/26 04:33:04;;;;;;;7.18;2.75;;;0.80;99.90;;;;;;5005950;28;20042;-58
2021/01/26 04:35:31;;;;;;;8.13;2.50;;;0.80;99.90;;;;;;5010413;28;20033;-57
2021/01/26 04:37:58;;;;;;;8.02;2.53;;;0.80;99.90;;;;;;5010701;28;20060;-57
2021/01/26 04:40:26;;;;;;;9.48;2.92;;;0.80;99.90;;;;;;5009655;28;20038;-58
2021/01/26 04:43:08;;;;;;;8.32;3.35;;;0.80;99.90;;;;;;5009431;28;20050;-58
2021/01/26 04:45:59;;;;;;;12.30;3.70;;;0.80;99.90;;;;;;5008476;28;20040;-57
2021/01/26 04:48:52;;;;;;;9.77;3.40;;;0.80;99.90;;;;;;5006090;28;20576;-58
2021/01/26 04:52:00;;;;;;;13.55;3.47;;;0.80;99.90;;;;;;5002079;28;20050;-59
2021/01/26 04:55:03;;;;;;;12.18;3.72;;;0.80;99.90;;;;;;5008640;28;20057;-57
2021/01/26 04:57:50;;;;;;;13.30;3.45;;;0.70;99.90;;;;;;5007291;28;20104;-58
2021/01/26 05:00:53;;;;;;;11.93;3.47;;;0.70;99.90;;;;;;5007215;28;20046;-57
2021/01/26 05:03:50;;;;;;;10.25;3.03;;;0.70;99.90;;;;;;5007071;28;20061;-58
2021/01/26 05:06:19;;;;;;;10.70;2.78;;;0.70;99.90;;;;;;5002017;28;20424;-58
2021/01/26 05:08:51;;;;;;;9.10;2.60;;;0.70;99.90;;;;;;5007580;28;20516;-58
2021/01/26 05:11:22;;;;;;;7.27;2.03;;;0.70;99.90;;;;;;4993485;28;20046;-58
2021/01/26 05:14:13;;;;;;;12.50;3.17;;;0.70;99.90;;;;;;5007993;28;20057;-59
2021/01/26 05:16:54;;;;;;;12.23;3.30;;;0.70;99.90;;;;;;5007420;28;20120;-57
2021/01/26 05:19:28;;;;;;;13.77;3.78;;;0.60;99.90;;;;;;5005957;28;20066;-57
2021/01/26 05:22:02;;;;;;;11.73;3.40;;;0.60;99.90;;;;;;4992726;28;20132;-58
2021/01/26 05:24:43;;;;;;;8.85;2.50;;;0.70;99.90;;;;;;5009143;28;20504;-59
2021/01/26 05:27:10;;;;;;;8.25;2.35;;;0.70;99.90;;;;;;5008958;28;20108;-58
2021/01/26 05:29:36;;;;;;;9.15;2.70;;;0.60;99.90;;;;;;4993900;28;20121;-58
2021/01/26 05:32:08;;;;;;;9.07;3.13;;;0.60;99.50;;;;;;5023928;28;20041;-58
2021/01/26 05:34:36;;;;;;;9.85;3.47;;;0.60;99.90;;;;;;5010305;28;20417;-58
2021/01/26 05:37:06;;;;;;;10.50;3.58;;;0.50;99.90;;;;;;5008596;28;20042;-59
2021/01/26 05:39:56;;;;;;;12.02;3.35;;;0.40;99.90;;;;;;5009963;28;20045;-58
2021/01/26 05:42:24;;;;;;;17.02;4.05;;;0.40;99.90;;;;;;4995897;28;20458;-58
2021/01/26 05:44:58;;;;;;;7.78;3.58;;;0.30;99.90;;;;;;5000317;28;20096;-58
2021/01/26 05:47:30;;;;;;;12.40;3.72;;;0.20;99.90;;;;;;5009404;28;20078;-58
2021/01/26 05:49:58;;;;;;;11.45;4.07;;;0.20;99.90;;;;;;5008452;28;20626;-58
2021/01/26 05:52:35;;;;;;;7.60;2.83;;;0.20;99.90;;;;;;5007599;28;20401;-57
2021/01/26 05:55:11;;;;;;;10.73;3.33;;;0.10;99.90;;;;;;5006866;28;20034;-59
2021/01/26 05:57:37;;;;;;;10.27;3.13;;;0.10;99.90;;;;;;5008017;28;20136;-57
2021/01/26 06:00:32;;;;;;;8.75;2.58;;;0.10;99.90;;;;;;5002677;28;20129;-57
2021/01/26 06:03:18;;;;;;;12.60;3.13;;;0.10;99.90;;;;;;5010833;28;20046;-57
2021/01/26 06:06:06;;;;;;;15.88;4.32;;;0.10;99.90;;;;;;5004869;28;20112;-58
2021/01/26 06:08:49;;;;;;;15.80;5.32;;;0.10;99.90;;;;;;5008352;28;20382;-64
2021/01/26 06:11:20;;;;;;;12.55;4.00;;;0.10;99.90;;;;;;4999526;28;20077;-57
2021/01/26 06:13:46;;;;;;;10.77;3.72;;;0.10;99.90;;;;;;4998996;28;20065;-57
2021/01/26 06:16:19;;;;;;;10.40;3.55;;;0.10;99.90;;;;;;5007246;28;20077;-57
2021/01/26 06:18:59;;;;;;;11.00;3.20;;;0.10;99.90;;;;;;5020181;28;20046;-57
2021/01/26 06:21:27;;;;;;;11.07;3.47;;;0.10;99.90;;;;;;5011831;28;20034;-58
2021/01/26 06:23:54;;;;;;;12.55;3.88;;;0.00;99.90;;;;;;5010202;28;20045;-58
2021/01/26 06:26:20;;;;;;;8.10;3.58;;;0.10;99.90;;;;;;5006899;28;20045;-58
2021/01/26 06:28:59;;;;;;;12.88;4.18;;;0.00;99.90;;;;;;4983012;28;20046;-59
2021/01/26 06:31:33;;;;;;;10.57;3.22;;;0.00;99.90;;;;;;4999681;28;20049;-58
2021/01/26 06:34:09;;;;;;;12.77;4.68;;;0.00;99.90;;;;;;5006702;28;20093;-58
2021/01/26 06:36:35;;;;;;;7.78;3.67;;;0.00;99.90;;;;;;5005358;28;20049;-58
2021/01/26 06:39:11;;;;;;;11.90;3.85;;;0.10;99.90;;;;;;5003064;28;20046;-58
2021/01/26 06:42:15;;;;;;;12.60;4.53;;;0.10;99.90;;;;;;5023813;28;20053;-58
2021/01/26 06:45:18;;;;;;;13.60;4.53;;;0.10;99.90;;;;;;5008316;28;20508;-59
2021/01/26 06:47:45;;;;;;;16.88;4.70;;;0.10;99.90;;;;;;5000138;28;20092;-57
2021/01/26 06:50:12;;;;;;;15.90;4.15;;;0.20;99.90;;;;;;5012034;28;20045;-58
2021/01/26 06:53:12;;;;;;;10.05;4.32;;;0.20;99.90;;;;;;5011437;28;20049;-58
2021/01/26 06:56:02;;;;;;;16.60;4.63;;;0.20;99.90;;;;;;5000506;28;20046;-58
2021/01/26 06:58:57;;;;;;;10.32;4.00;;;0.30;99.90;;;;;;5009342;28;20042;-58
2021/01/26 07:02:20;;;;;;;14.52;4.53;;;0.20;99.90;;;;;;5011980;28;20409;-57
2021/01/26 07:05:01;;;;;;;13.25;4.28;;;0.30;99.90;;;;;;5009788;28;20096;-58
2021/01/26 07:08:06;;;;;;;12.40;4.35;;;0.30;99.90;;;;;;5000441;28;20054;-59
2021/01/26 07:10:39;;;;;;;8.68;3.92;;;0.40;99.90;;;;;;5005099;28;20060;-58
2021/01/26 07:13:15;;;;;;;16.10;5.65;;;0.40;99.90;;;;;;4993689;28;20057;-60
2021/01/26 07:16:11;;;;;;;11.73;3.35;;;0.60;99.90;;;;;;5009149;28;20053;-59
2021/01/26 07:18:52;;;;;;;12.40;4.65;;;0.70;99.90;;;;;;4997679;28;20073;-58
2021/01/26 07:21:47;;;;;;;13.18;5.15;;;0.80;99.90;;;;;;5005094;28;20189;-58
2021/01/26 07:24:14;;;;;;;16.40;5.45;;;0.90;99.90;;;;;;5006621;28;20081;-58
2021/01/26 07:27:05;;;;;;;15.88;4.65;;;1.00;99.90;;;;;;5009464;28;20587;-59
2021/01/26 07:29:52;;;;;;;16.85;4.80;;;1.10;99.90;;;;;;5006497;28;20537;-58
2021/01/26 07:32:43;;;;;;;14.43;5.00;;;1.30;99.90;;;;;;4990990;28;20050;-59
2021/01/26 07:35:22;;;;;;;19.13;5.85;;;1.40;99.90;;;;;;4995294;28;20543;-58
2021/01/26 07:38:00;;;;;;;11.15;3.80;;;1.50;99.50;;;;;;5004082;28;20050;-59
2021/01/26 07:41:00;;;;;;;12.90;3.83;;;1.60;99.80;;;;;;5007524;28;20064;-58
2021/01/26 07:43:30;;;;;;;16.40;4.70;;;1.80;98.80;;;;;;5007331;28;20054;-58
2021/01/26 07:46:20;;;;;;;10.52;4.03;;;1.90;98.20;;;;;;5011989;28;20048;-58
2021/01/26 07:49:20;;;;;;;12.10;4.20;;;2.00;97.70;;;;;;5010613;28;20052;-58
2021/01/26 07:51:55;;;;;;;13.18;4.80;;;2.10;97.10;;;;;;4997578;28;20114;-59
2021/01/26 07:54:32;;;;;;;13.38;3.88;;;2.10;97.70;;;;;;4990113;28;20634;-60
2021/01/26 07:57:02;;;;;;;11.65;3.60;;;2.20;96.80;;;;;;5001134;28;21224;-58
2021/01/26 07:59:44;;;;;;;14.63;4.90;;;2.30;96.20;;;;;;5007164;28;20046;-58
2021/01/26 08:02:24;;;;;;;14.82;4.30;;;2.40;96.30;;;;;;5001168;28;20052;-60
2021/01/26 08:04:51;;;;;;;11.80;4.18;;;2.60;95.60;;;;;;5002977;28;20061;-58
2021/01/26 08:07:30;;;;;;;12.40;3.63;;;2.60;94.60;;;;;;5006128;28;20100;-58
2021/01/26 08:10:00;;;;;;;13.90;4.18;;;2.70;94.20;;;;;;4999262;28;20045;-58
2021/01/26 08:12:29;;;;;;;13.05;4.25;;;2.80;94.30;;;;;;5006348;28;20046;-59
2021/01/26 08:15:13;;;;;;;11.30;4.07;;;2.90;93.80;;;;;;5001258;28;20132;-60
2021/01/26 08:17:40;;;;;;;12.68;3.95;;;2.90;93.20;;;;;;4998689;28;20029;-59
2021/01/26 08:20:12;;;;;;;11.98;3.58;;;2.90;92.70;;;;;;5003785;28;20046;-59
2021/01/26 08:22:47;;;;;;;12.20;3.92;;;2.90;92.30;;;;;;5007019;28;20037;-58
2021/01/26 08:25:23;;;;;;;12.55;3.80;;;2.90;91.80;;;;;;4998159;28;20058;-59
2021/01/26 08:27:58;;;;;;;13.43;4.45;;;3.00;91.80;;;;;;4999112;28;20042;-58
2021/01/26 08:30:49;;;;;;;12.10;3.80;;;3.00;91.50;;;;;;5001598;28;20046;-58
2021/01/26 08:33:17;;;;;;;14.15;4.03;;;3.00;91.90;;;;;;4986526;28;20042;-58
2021/01/26 08:36:02;;;;;;;13.40;4.43;;;3.10;90.40;;;;;;5003018;28;20044;-58
2021/01/26 08:38:45;;;;;;;8.77;3.60;;;3.10;91.30;;;;;;5006067;28;20456;-58
2021/01/26 08:41:40;;;;;;;13.10;4.13;;;3.20;90.30;;;;;;5006984;28;20045;-58
2021/01/26 08:44:27;;;;;;;14.77;3.83;;;3.30;91.30;;;;;;5003858;28;20044;-58
2021/01/26 08:46:54;;;;;;;11.32;4.35;;;3.50;90.50;;;;;;5007294;28;20045;-58
2021/01/26 08:49:34;;;;;;;11.73;4.22;;;3.70;91.00;;;;;;5011752;28;20477;-57
2021/01/26 08:52:22;;;;;;;13.43;4.03;;;3.80;89.30;;;;;;5002497;28;20048;-58
2021/01/26 08:54:51;;;;;;;10.07;3.78;;;3.90;86.60;;;;;;5001461;28;20117;-58
2021/01/26 08:57:26;;;;;;;13.07;3.90;;;3.90;85.90;;;;;;5002446;28;20048;-58
2021/01/26 08:59:56;;;;;;;11.10;4.38;;;3.90;85.60;;;;;;5007584;28;20045;-57
2021/01/26 09:02:42;;;;;;;14.27;5.25;;;3.90;85.50;;;;;;5005974;28;20041;-57
2021/01/26 09:05:11;;;;;;;12.35;4.60;;;4.00;84.20;;;;;;5006820;28;20042;-59
2021/01/26 09:08:07;;;;;;;16.15;4.50;;;3.90;84.40;;;;;;4997252;28;20049;-58
2021/01/26 09:10:50;;;;;;;14.88;4.53;;;4.00;86.20;;;;;;5003935;28;20050;-56
2021/01/26 09:13:32;;;;;;;16.98;6.03;;;4.10;83.20;;;;;;5004831;28;20049;-57
2021/01/26 09:16:03;;;;;;;14.05;5.28;;;4.10;83.60;;;;;;4988766;28;20057;-58
2021/01/26 09:18:31;;;;;;;12.18;4.32;;;4.20;84.70;;;;;;5003352;28;20052;-58
2021/01/26 09:21:03;;;;;;;10.40;3.78;;;4.30;84.40;;;;;;5005581;28;20048;-58
2021/01/26 09:23:30;;;;;;;10.32;4.07;;;4.40;83.00;;;;;;5019877;28;20061;-57
2021/01/26 09:25:58;;;;;;;10.63;3.90;;;4.30;82.60;;;;;;5012934;28;20052;-57
2021/01/26 09:28:38;;;;;;;8.70;3.97;;;4.40;81.90;;;;;;5004569;28;20077;-56
2021/01/26 09:31:05;;;;;;;10.32;3.88;;;4.50;80.40;;;;;;5005013;28;20073;-57
2021/01/26 09:33:33;;;;;;;11.02;3.75;;;4.60;81.70;;;;;;5006833;28;20405;-57
2021/01/26 09:36:01;;;;;;;12.40;4.32;;;4.70;80.80;;;;;;5004249;28;20038;-57
2021/01/26 09:38:31;;;;;;;12.43;4.43;;;4.80;79.50;;;;;;5008190;28;20061;-57
2021/01/26 09:41:17;;;;;;;10.80;3.67;;;4.90;79.40;;;;;;5004712;28;20060;-58
2021/01/26 09:43:46;;;;;;;12.75;4.53;;;5.10;78.90;;;;;;5018220;28;20042;-58
2021/01/26 09:46:26;;;;;;;13.13;4.38;;;5.20;77.20;;;;;;4999837;28;20042;-58
2021/01/26 09:49:07;;;;;;;13.68;4.10;;;5.20;77.10;;;;;;5005866;28;20081;-58
2021/01/26 09:51:41;;;;;;;11.13;4.40;;;5.20;76.10;;;;;;5003422;28;20053;-59
2021/01/26 09:54:16;;;;;;;13.68;4.20;;;5.20;77.00;;;;;;5003772;28;20042;-57
2021/01/26 09:56:43;;;;;;;12.02;3.97;;;5.30;76.00;;;;;;5006953;28;20054;-58
2021/01/26 09:59:12;;;;;;;10.25;3.38;;;5.30;74.30;;;;;;4988577;28;20046;-58
2021/01/26 10:01:43;;;;;;;18.05;4.18;;;5.30;73.70;;;;;;5009195;28;20136;-57
2021/01/26 10:04:11;;;;;;;13.05;3.78;;;5.30;73.60;;;;;;5004867;28;20046;-59
2021/01/26 10:06:39;;;;;;;8.85;3.38;;;5.40;72.00;;;;;;4989009;28;20038;-58
2021/01/26 10:09:26;;;;;;;10.15;3.70;;;5.50;71.50;;;;;;5000900;28;20045;-58
2021/01/26 10:11:54;;;;;;;9.35;3.58;;;5.60;71.70;;;;;;5001573;28;20045;-60
2021/01/26 10:14:27;;;;;;;8.57;3.15;;;5.60;71.10;;;;;;5007347;28;20038;-60
2021/01/26 10:16:56;;;;;;;9.27;2.85;;;5.70;68.70;;;;;;5009798;28;20519;-58
2021/01/26 10:19:30;;;;;;;9.70;3.13;;;5.60;68.80;;;;;;5011845;28;20120;-59
2021/01/26 10:22:18;;;;;;;9.30;3.25;;;5.80;70.80;;;;;;5009157;28;20054;-58
2021/01/26 10:24:45;;;;;;;14.13;4.38;;;5.90;68.50;;;;;;5016202;28;20378;-59
2021/01/26 10:27:19;;;;;;;11.70;3.63;;;6.10;69.30;;;;;;5013867;28;20046;-59
2021/01/26 10:29:46;;;;;;;10.98;3.13;;;6.20;68.30;;;;;;5001080;28;20481;-59
2021/01/26 10:32:44;;;;;;;11.50;3.42;;;6.20;66.80;;;;;;5009237;28;20058;-58
2021/01/26 10:35:31;;;;;;;10.25;2.92;;;6.10;66.30;;;;;;5012049;28;20720;-58
2021/01/26 10:38:25;;;;;;;9.73;3.10;;;6.20;67.40;;;;;;5013806;28;20576;-58
2021/01/26 10:41:20;;;;;;;9.45;2.75;;;6.30;66.50;;;;;;5008136;28;20050;-58
2021/01/26 10:43:47;;;;;;;9.88;3.20;;;6.30;65.70;;;;;;5013299;28;20042;-58
2021/01/26 10:46:29;;;;;;;10.98;3.28;;;6.40;65.60;;;;;;5012706;28;20057;-58
2021/01/26 10:49:14;;;;;;;6.93;2.15;;;6.40;64.80;;;;;;4999981;28;20560;-58
2021/01/26 10:51:42;;;;;;;8.63;2.80;;;6.50;63.60;;;;;;5008436;28;20049;-57
2021/01/26 10:54:08;;;;;;;8.35;2.90;;;6.50;64.70;;;;;;5012999;28;20482;-59
2021/01/26 10:56:36;;;;;;;8.68;2.88;;;6.50;64.20;;;;;;5011829;28;20041;-59
2021/01/26 10:59:03;;;;;;;7.50;2.47;;;6.60;63.80;;;;;;5008276;28;20112;-58
2021/01/26 11:01:30;;;;;;;8.10;2.90;;;6.80;64.20;;;;;;5013348;28;20505;-58
2021/01/26 11:03:58;;;;;;;10.35;2.78;;;7.00;63.10;;;;;;5012433;28;20042;-58
2021/01/26 11:06:26;;;;;;;12.82;3.22;;;7.00;63.00;;;;;;5013413;28;20382;-59
2021/01/26 11:08:54;;;;;;;9.85;3.13;;;7.00;63.20;;;;;;5011540;28;20133;-59
2021/01/26 11:11:25;;;;;;;8.18;3.03;;;7.20;63.00;;;;;;5011547;28;20050;-58
2021/01/26 11:13:52;;;;;;;8.10;3.75;;;7.20;62.90;;;;;;5010973;28;20108;-58
2021/01/26 11:16:20;;;;;;;10.63;3.05;;;7.30;62.10;;;;;;5011759;28;20129;-58
2021/01/26 11:18:47;;;;;;;7.20;2.75;;;7.00;60.60;;;;;;5012939;28;20045;-58
2021/01/26 11:21:13;;;;;;;9.38;3.35;;;7.10;62.80;;;;;;5009902;28;20053;-59
2021/01/26 11:23:41;;;;;;;10.25;4.00;;;6.80;61.50;;;;;;5012434;28;20409;-59
2021/01/26 11:26:11;;;;;;;9.35;3.75;;;6.80;64.00;;;;;;4994845;28;20779;-58
2021/01/26 11:28:38;;;;;;;10.38;3.60;;;6.80;63.50;;;;;;5003074;28;20398;-58
2021/01/26 11:31:04;;;;;;;7.95;3.45;;;6.90;63.10;;;;;;5008321;28;20038;-57
2021/01/26 11:33:31;;;;;;;7.10;3.35;;;7.20;63.20;;;;;;5012325;28;20548;-59
2021/01/26 11:35:58;;;;;;;6.90;2.95;;;7.10;62.80;;;;;;5012988;28;20037;-58
2021/01/26 11:38:25;;;;;;;9.57;3.58;;;7.30;63.80;;;;;;5012364;28;20093;-59
2021/01/26 11:40:53;;;;;;;7.97;3.33;;;7.40;64.60;;;;;;5010166;28;20100;-58
2021/01/26 11:43:19;;;;;;;7.10;3.10;;;7.60;64.90;;;;;;5010969;28;20050;-58
2021/01/26 11:45:46;;;;;;;11.32;3.85;;;7.50;61.50;;;;;;5009964;28;20056;-58
2021/01/26 11:48:13;;;;;;;9.65;3.40;;;7.60;62.10;;;;;;5004564;28;20417;-60
2021/01/26 11:50:40;;;;;;;9.45;2.80;;;7.70;62.50;;;;;;5005170;28;20412;-58
2021/01/26 11:53:10;;;;;;;9.05;2.88;;;7.80;60.90;;;;;;5009817;28;20044;-57
2021/01/26 11:55:37;;;;;;;9.70;3.45;;;7.80;60.80;;;;;;5005678;28;20044;-60
2021/01/26 11:58:05;;;;;;;8.20;3.00;;;8.00;61.60;;;;;;5009067;28;20381;-58
2021/01/26 12:00:33;;;;;;;8.63;3.28;;;8.00;60.40;;;;;;5010470;28;20038;-59
2021/01/26 12:03:01;;;;;;;8.20;3.17;;;7.90;59.80;;;;;;5022916;28;20049;-59
2021/01/26 12:05:30;;;;;;;8.88;3.25;;;8.00;60.50;;;;;;5010379;28;20065;-59
2021/01/26 12:07:57;;;;;;;17.05;4.82;;;8.10;60.70;;;;;;5011984;28;20045;-58
2021/01/26 12:10:24;;;;;;;10.82;3.88;;;8.00;60.60;;;;;;5009805;28;20038;-58
2021/01/26 12:12:52;;;;;;;13.50;4.65;;;7.80;60.90;;;;;;5012146;28;20515;-59
2021/01/26 12:15:28;;;;;;;12.65;4.65;;;7.90;61.30;;;;;;5009103;28;20046;-58
2021/01/26 12:17:55;;;;;;;11.15;4.10;;;7.90;61.70;;;;;;5008253;28;20120;-57
2021/01/26 12:20:22;;;;;;;12.32;4.57;;;7.90;61.10;;;;;;5006496;28;20057;-58
2021/01/26 12:22:49;;;;;;;13.93;4.95;;;7.80;61.40;;;;;;5007291;28;20052;-58
2021/01/26 12:25:17;;;;;;;13.18;5.03;;;8.00;63.10;;;;;;5023570;28;20080;-58
2021/01/26 12:27:44;;;;;;;13.75;4.68;;;8.10;62.40;;;;;;5007440;28;20061;-59
2021/01/26 12:30:12;;;;;;;15.32;4.18;;;7.90;60.40;;;;;;5002115;28;20033;-58
2021/01/26 12:32:39;;;;;;;12.80;5.00;;;7.70;61.50;;;;;;5009839;28;20049;-60
2021/01/26 12:35:14;;;;;;;11.63;4.30;;;7.80;62.60;;;;;;5010021;28;20030;-58
2021/01/26 12:37:41;;;;;;;11.95;4.10;;;7.70;61.40;;;;;;5025062;28;20046;-59
2021/01/26 12:40:08;;;;;;;12.77;4.32;;;7.40;61.00;;;;;;5009002;28;20048;-58
2021/01/26 12:42:35;;;;;;;15.93;5.07;;;7.50;62.10;;;;;;5002592;28;20056;-59
2021/01/26 12:45:01;;;;;;;8.40;3.63;;;7.50;63.20;;;;;;5004882;28;20096;-58
2021/01/26 12:47:28;;;;;;;16.73;4.28;;;7.60;62.00;;;;;;5004526;28;20058;-57
2021/01/26 12:49:57;;;;;;;11.40;4.22;;;7.50;61.20;;;;;;5007498;28;20042;-58
2021/01/26 12:52:24;;;;;;;10.52;4.03;;;7.40;61.80;;;;;;5007249;28;20046;-59
2021/01/26 12:54:51;;;;;;;10.57;3.45;;;7.50;62.20;;;;;;5006981;28;20481;-59
2021/01/26 12:57:18;;;;;;;8.43;3.58;;;7.40;61.90;;;;;;5010502;28;20034;-59
2021/01/26 12:59:45;;;;;;;8.65;2.95;;;7.30;62.50;;;;;;5003139;28;20100;-58
2021/01/26 13:02:12;;;;;;;7.70;3.28;;;7.00;61.00;;;;;;4995369;28;20048;-59
2021/01/26 13:04:38;;;;;;;9.73;3.35;;;6.70;61.70;;;;;;4985356;28;20980;-59
2021/01/26 13:07:05;;;;;;;7.50;2.55;;;6.40;62.00;;;;;;4998302;28;20049;-57
2021/01/26 13:09:31;;;;;;;7.88;2.70;;;6.10;63.10;;;;;;5006207;28;20053;-57
2021/01/26 13:11:59;;;;;;;14.93;3.10;;;5.90;63.90;;;;;;5011732;28;20574;-58
2021/01/26 13:14:25;;;;;;;7.70;3.28;;;5.60;64.40;;;;;;5009460;28;20046;-59
2021/01/26 13:16:52;;;;;;;8.32;3.35;;;5.30;65.70;;;;;;5005671;28;20069;-59
2021/01/26 13:19:21;;;;;;;6.88;2.58;;;5.10;66.30;;;;;;5002146;28;20108;-60
2021/01/26 13:21:48;;;;;;;8.73;2.90;;;4.90;67.90;;;;;;4994348;28;20050;-60
2021/01/26 13:24:15;;;;;;;9.02;3.60;;;4.70;68.40;;;;;;5004067;28;20563;-60
2021/01/26 13:26:42;;;;;;;7.63;2.92;;;4.80;69.10;;;;;;5004994;28;20049;-60
2021/01/26 13:29:08;;;;;;;8.57;3.15;;;4.80;68.40;;;;;;5006328;28;20049;-59